createdAt,value
2022-08-03T00:00:28.055Z,22.10
2022-08-03T00:02:55.215Z,22.20
2022-08-03T00:05:22.332Z,22.20
2022-08-03T00:07:49.511Z,22.40
2022-08-03T00:10:16.831Z,22.30
2022-08-03T00:12:43.921Z,22.30
2022-08-03T00:15:15.227Z,22.50
2022-08-03T00:17:53.269Z,22.50
2022-08-03T00:20:22.013Z,22.30
2022-08-03T00:22:49.703Z,22.30
2022-08-03T00:25:17.387Z,22.30
2022-08-03T00:27:44.493Z,22.20
2022-08-03T00:30:12.001Z,22.20
2022-08-03T00:32:44.330Z,22.20
2022-08-03T00:35:32.489Z,22.00
2022-08-03T00:38:00.190Z,22.00
2022-08-03T00:40:27.598Z,22.00
2022-08-03T00:43:02.710Z,22.00
2022-08-03T00:45:32.696Z,21.80
2022-08-03T00:48:00.334Z,21.70
2022-08-03T00:50:29.402Z,21.70
2022-08-03T00:52:59.607Z,21.90
2022-08-03T00:55:27.131Z,21.80
2022-08-03T00:57:54.437Z,22.00
2022-08-03T01:00:24.303Z,22.00
2022-08-03T01:02:52.542Z,21.90
2022-08-03T01:05:21.085Z,21.80
2022-08-03T01:08:06.415Z,21.60
2022-08-03T01:10:49.572Z,21.60
2022-08-03T01:14:01.226Z,21.60
2022-08-03T01:16:54.580Z,21.70
2022-08-03T01:19:43.046Z,21.60
2022-08-03T01:22:31.719Z,21.70
2022-08-03T01:25:29.760Z,21.60
2022-08-03T01:28:08.781Z,21.60
2022-08-03T01:30:43.291Z,21.50
2022-08-03T01:33:19.173Z,21.50
2022-08-03T01:35:54.374Z,21.40
2022-08-03T01:38:32.122Z,21.40
2022-08-03T01:41:11.913Z,21.30
2022-08-03T01:43:58.953Z,21.50
2022-08-03T01:46:32.411Z,21.50
2022-08-03T01:49:00.844Z,21.40
2022-08-03T01:52:02.919Z,21.30
2022-08-03T01:54:27.867Z,21.30
2022-08-03T01:56:57.578Z,21.20
2022-08-03T01:59:26.634Z,21.30
2022-08-03T02:02:28.462Z,21.20
2022-08-03T02:04:43.715Z,21.20
2022-08-03T02:07:12.121Z,21.10
2022-08-03T02:09:41.731Z,21.10
2022-08-03T02:12:10.375Z,21.10
2022-08-03T02:14:39.617Z,21.20
2022-08-03T02:17:08.330Z,21.10
2022-08-03T02:19:36.856Z,21.00
2022-08-03T02:22:08.519Z,21.00
2022-08-03T02:24:35.594Z,21.00
2022-08-03T02:27:06.291Z,20.90
2022-08-03T02:29:39.103Z,21.00
2022-08-03T02:32:11.752Z,20.90
2022-08-03T02:34:41.971Z,20.90
2022-08-03T02:37:10.591Z,20.90
2022-08-03T02:39:39.825Z,21.00
2022-08-03T02:42:12.203Z,21.10
2022-08-03T02:44:43.828Z,20.90
2022-08-03T02:47:12.607Z,20.90
2022-08-03T02:49:50.671Z,20.70
2022-08-03T02:52:21.769Z,20.70
2022-08-03T02:54:51.200Z,20.70
2022-08-03T02:57:19.917Z,20.80
2022-08-03T02:59:47.845Z,20.90
2022-08-03T03:02:16.933Z,20.60
2022-08-03T03:05:53.565Z,20.50
2022-08-03T03:07:34.635Z,20.70
2022-08-03T03:10:18.954Z,20.60
2022-08-03T03:12:46.902Z,20.70
2022-08-03T03:15:13.889Z,20.60
2022-08-03T03:17:42.620Z,20.60
2022-08-03T03:20:10.223Z,20.50
2022-08-03T03:22:38.659Z,20.50
2022-08-03T03:25:08.310Z,20.50
2022-08-03T03:27:36.159Z,20.60
2022-08-03T03:30:04.377Z,20.70
2022-08-03T03:32:31.459Z,20.60
2022-08-03T03:35:01.999Z,20.60
2022-08-03T03:37:29.123Z,20.60
2022-08-03T03:39:56.250Z,20.50
2022-08-03T03:42:23.807Z,20.50
2022-08-03T03:44:51.533Z,20.40
2022-08-03T03:47:18.803Z,20.40
2022-08-03T03:49:59.737Z,20.30
2022-08-03T03:52:26.520Z,20.10
2022-08-03T03:54:56.404Z,20.00
2022-08-03T03:57:27.589Z,20.00
2022-08-03T03:59:54.745Z,20.00
2022-08-03T04:02:21.725Z,20.10
2022-08-03T04:05:07.127Z,20.10
2022-08-03T04:08:05.731Z,20.40
2022-08-03T04:10:54.383Z,20.10
2022-08-03T04:13:22.990Z,20.30
2022-08-03T04:15:51.978Z,20.40
2022-08-03T04:18:21.453Z,20.20
2022-08-03T04:20:50.456Z,20.30
2022-08-03T04:23:22.431Z,20.40
2022-08-03T04:25:51.613Z,20.20
2022-08-03T04:28:31.386Z,20.30
2022-08-03T04:31:01.195Z,20.00
2022-08-03T04:33:32.489Z,20.10
2022-08-03T04:36:03.803Z,20.20
2022-08-03T04:38:37.039Z,20.20
2022-08-03T04:41:04.978Z,20.10
2022-08-03T04:43:34.668Z,20.10
2022-08-03T04:46:02.995Z,20.30
2022-08-03T04:48:30.239Z,20.20
2022-08-03T04:50:57.606Z,20.10
2022-08-03T04:53:24.499Z,20.20
2022-08-03T04:55:51.404Z,20.10
2022-08-03T04:58:18.215Z,20.10
2022-08-03T05:00:45.723Z,20.30
2022-08-03T05:03:20.274Z,20.30
2022-08-03T05:06:09.391Z,20.40
2022-08-03T05:08:37.448Z,20.50
2022-08-03T05:11:13.862Z,20.60
2022-08-03T05:13:40.763Z,20.40
2022-08-03T05:16:07.578Z,20.30
2022-08-03T05:18:36.007Z,20.50
2022-08-03T05:21:03.049Z,20.50
2022-08-03T05:23:30.051Z,20.70
2022-08-03T05:25:57.185Z,20.80
2022-08-03T05:28:24.259Z,20.60
2022-08-03T05:30:51.272Z,20.60
2022-08-03T05:33:18.299Z,20.50
2022-08-03T05:35:56.830Z,20.60
2022-08-03T05:38:34.388Z,20.60
2022-08-03T05:41:21.624Z,20.70
2022-08-03T05:43:52.905Z,20.70
2022-08-03T05:46:21.155Z,20.80
2022-08-03T05:48:48.148Z,20.90
2022-08-03T05:51:15.254Z,20.60
2022-08-03T05:53:43.279Z,20.90
2022-08-03T05:56:13.746Z,20.90
2022-08-03T05:58:43.947Z,21.10
2022-08-03T06:01:11.110Z,21.20
2022-08-03T06:03:38.220Z,21.40
2022-08-03T06:06:05.269Z,21.20
2022-08-03T06:08:32.516Z,21.30
2022-08-03T06:10:59.583Z,21.10
2022-08-03T06:13:26.533Z,21.10
2022-08-03T06:15:53.579Z,21.30
2022-08-03T06:18:20.487Z,21.30
2022-08-03T06:20:49.419Z,21.50
2022-08-03T06:23:18.096Z,21.60
2022-08-03T06:25:48.714Z,21.80
2022-08-03T06:28:42.405Z,21.90
2022-08-03T06:31:03.658Z,21.90
2022-08-03T06:34:30.460Z,22.00
2022-08-03T06:36:21.177Z,21.90
2022-08-03T06:38:48.213Z,21.90
2022-08-03T06:41:15.142Z,22.10
2022-08-03T06:44:03.670Z,22.20
2022-08-03T06:46:30.343Z,22.30
2022-08-03T06:48:57.475Z,22.30
2022-08-03T06:52:06.041Z,22.10
2022-08-03T06:54:12.393Z,22.20
2022-08-03T06:56:39.625Z,22.40
2022-08-03T06:59:06.529Z,22.30
2022-08-03T07:01:33.602Z,22.60
2022-08-03T07:04:01.260Z,22.60
2022-08-03T07:06:28.085Z,22.50
2022-08-03T07:08:59.250Z,22.50
2022-08-03T07:11:26.883Z,22.50
2022-08-03T07:13:54.162Z,22.60
2022-08-03T07:16:21.114Z,22.70
2022-08-03T07:18:48.244Z,23.00
2022-08-03T07:21:16.779Z,23.30
2022-08-03T07:23:43.751Z,23.40
2022-08-03T07:26:10.731Z,23.30
2022-08-03T07:28:37.828Z,23.40
2022-08-03T07:31:04.873Z,23.50
2022-08-03T07:33:32.014Z,23.60
2022-08-03T07:35:58.902Z,23.90
2022-08-03T07:38:25.816Z,24.00
2022-08-03T07:40:54.065Z,24.10
2022-08-03T07:43:21.376Z,24.20
2022-08-03T07:45:48.471Z,24.10
2022-08-03T07:48:15.484Z,24.30
2022-08-03T07:50:42.624Z,24.20
2022-08-03T07:53:09.830Z,24.10
2022-08-03T07:55:36.840Z,24.30
2022-08-03T07:58:24.289Z,24.20
2022-08-03T08:00:53.243Z,24.30
2022-08-03T08:03:21.963Z,24.30
2022-08-03T08:05:49.587Z,24.70
2022-08-03T08:08:16.546Z,24.70
2022-08-03T08:10:57.629Z,24.90
2022-08-03T08:13:25.813Z,25.20
2022-08-03T08:15:52.925Z,25.30
2022-08-03T08:18:20.060Z,25.40
2022-08-03T08:20:46.963Z,25.60
2022-08-03T08:23:38.002Z,25.70
2022-08-03T08:26:01.096Z,25.80
2022-08-03T08:28:31.874Z,25.90
2022-08-03T08:31:00.925Z,26.00
2022-08-03T08:33:42.029Z,26.00
2022-08-03T08:36:15.689Z,25.80
2022-08-03T08:38:45.083Z,25.80
2022-08-03T08:41:13.970Z,26.20
2022-08-03T08:43:42.241Z,26.40
2022-08-03T08:46:22.915Z,26.40
2022-08-03T08:48:51.372Z,26.70
2022-08-03T08:51:21.021Z,26.90
2022-08-03T08:53:53.964Z,26.70
2022-08-03T08:56:25.598Z,26.90
2022-08-03T08:58:56.334Z,26.90
2022-08-03T09:01:23.753Z,27.10
2022-08-03T09:03:52.188Z,27.20
2022-08-03T09:06:19.078Z,27.20
2022-08-03T09:08:46.006Z,27.50
2022-08-03T09:11:13.215Z,27.90
2022-08-03T09:13:40.286Z,28.20
2022-08-03T09:16:16.289Z,28.40
2022-08-03T09:18:45.595Z,28.50
2022-08-03T09:21:32.151Z,28.30
2022-08-03T09:24:04.749Z,28.40
2022-08-03T09:26:33.399Z,28.60
2022-08-03T09:29:13.139Z,28.70
2022-08-03T09:31:46.035Z,29.10
2022-08-03T09:34:17.664Z,29.10
2022-08-03T09:36:47.364Z,29.00
2022-08-03T09:39:40.241Z,28.90
2022-08-03T09:42:14.694Z,29.40
2022-08-03T09:44:44.949Z,29.30
2022-08-03T09:47:14.535Z,29.60
2022-08-03T09:49:42.900Z,29.80
2022-08-03T09:52:39.324Z,30.00
2022-08-03T09:56:34.644Z,30.10
2022-08-03T09:58:07.159Z,30.60
2022-08-03T10:01:00.269Z,30.00
2022-08-03T10:03:30.255Z,30.50
2022-08-03T10:05:59.941Z,30.60
2022-08-03T10:08:27.127Z,31.00
2022-08-03T10:10:54.690Z,31.40
2022-08-03T10:13:23.289Z,31.60
2022-08-03T10:16:23.785Z,31.60
2022-08-03T10:18:37.867Z,31.20
2022-08-03T10:21:10.631Z,31.50
2022-08-03T10:23:40.391Z,31.40
2022-08-03T10:26:08.419Z,31.60
2022-08-03T10:28:44.742Z,31.80
2022-08-03T10:31:14.176Z,31.70
2022-08-03T10:33:53.093Z,31.30
2022-08-03T10:36:25.332Z,31.70
2022-08-03T10:38:53.707Z,32.20
2022-08-03T10:41:22.659Z,32.60
2022-08-03T10:43:49.665Z,33.10
2022-08-03T10:46:21.397Z,33.40
2022-08-03T10:48:51.749Z,33.50
2022-08-03T10:51:20.410Z,33.60
2022-08-03T10:53:54.597Z,33.20
2022-08-03T10:56:54.462Z,33.40
2022-08-03T10:59:46.848Z,33.50
2022-08-03T11:02:17.951Z,32.80
2022-08-03T11:04:45.308Z,33.00
2022-08-03T11:07:23.774Z,33.40
2022-08-03T11:09:55.817Z,33.50
2022-08-03T11:12:30.880Z,33.40
2022-08-03T11:15:07.306Z,33.20
2022-08-03T11:17:45.796Z,33.00
2022-08-03T11:20:14.041Z,33.00
2022-08-03T11:22:54.426Z,33.30
2022-08-03T11:25:53.078Z,33.20
2022-08-03T11:28:28.702Z,33.30
2022-08-03T11:30:55.803Z,33.40
2022-08-03T11:33:32.451Z,34.00
2022-08-03T11:36:02.740Z,33.90
2022-08-03T11:38:29.564Z,33.90
2022-08-03T11:40:56.840Z,33.90
2022-08-03T11:43:27.788Z,33.70
2022-08-03T11:46:06.137Z,34.20
2022-08-03T11:48:45.304Z,34.10
2022-08-03T11:51:27.097Z,34.00
2022-08-03T11:54:00.903Z,33.90
2022-08-03T11:56:29.180Z,33.60
2022-08-03T11:59:20.122Z,34.00
2022-08-03T12:01:46.207Z,34.40
2022-08-03T12:04:13.114Z,33.90
2022-08-03T12:06:55.272Z,34.50
2022-08-03T12:09:22.953Z,34.90
2022-08-03T12:11:59.710Z,35.60
2022-08-03T12:14:48.376Z,35.70
2022-08-03T12:17:16.719Z,36.20
2022-08-03T12:19:44.488Z,35.80
2022-08-03T12:22:11.827Z,36.00
2022-08-03T12:24:43.050Z,35.80
2022-08-03T12:27:10.326Z,35.00
2022-08-03T12:29:37.558Z,35.20
2022-08-03T12:32:04.637Z,34.70
2022-08-03T12:34:50.555Z,35.40
2022-08-03T12:37:24.057Z,35.40
2022-08-03T12:40:03.080Z,34.70
2022-08-03T12:42:38.819Z,34.30
2022-08-03T12:45:27.009Z,34.60
2022-08-03T12:48:01.933Z,35.50
2022-08-03T12:50:34.382Z,35.90
2022-08-03T12:53:10.130Z,36.00
2022-08-03T12:55:40.073Z,35.70
2022-08-03T12:58:36.749Z,35.50
2022-08-03T13:01:09.450Z,34.40
2022-08-03T13:03:49.809Z,34.20
2022-08-03T13:06:22.578Z,33.70
2022-08-03T13:08:53.657Z,34.10
2022-08-03T13:11:43.447Z,35.10
2022-08-03T13:14:13.509Z,35.60
2022-08-03T13:16:46.462Z,35.60
2022-08-03T13:19:15.418Z,36.50
2022-08-03T13:22:03.589Z,36.70
2022-08-03T13:24:31.582Z,36.60
2022-08-03T13:26:59.419Z,36.50
2022-08-03T13:29:26.353Z,35.60
2022-08-03T13:31:53.457Z,35.50
2022-08-03T13:34:23.413Z,36.30
2022-08-03T13:37:10.076Z,36.30
2022-08-03T13:39:57.914Z,36.20
2022-08-03T13:42:24.933Z,35.90
2022-08-03T13:44:52.559Z,35.70
2022-08-03T13:47:22.024Z,35.80
2022-08-03T13:49:59.780Z,35.70
2022-08-03T13:52:36.291Z,35.70
2022-08-03T13:55:05.847Z,36.20
2022-08-03T13:58:02.614Z,36.60
2022-08-03T14:00:27.434Z,37.10
2022-08-03T14:03:06.592Z,37.10
2022-08-03T14:05:34.615Z,36.80
2022-08-03T14:08:03.817Z,36.70
2022-08-03T14:10:31.541Z,37.20
2022-08-03T14:13:00.563Z,37.30
2022-08-03T14:15:28.846Z,37.30
2022-08-03T14:17:58.507Z,37.60
2022-08-03T14:20:38.783Z,37.20
2022-08-03T14:23:16.755Z,37.00
2022-08-03T14:25:50.313Z,36.90
2022-08-03T14:28:21.299Z,36.20
2022-08-03T14:30:48.737Z,36.30
2022-08-03T14:33:16.588Z,35.70
2022-08-03T14:35:43.712Z,35.70
2022-08-03T14:38:11.300Z,35.60
2022-08-03T14:40:38.356Z,35.40
2022-08-03T14:43:05.455Z,35.50
2022-08-03T14:45:33.000Z,35.70
2022-08-03T14:50:28.894Z,36.10
2022-08-03T14:50:51.898Z,36.70
2022-08-03T14:53:19.634Z,36.80
2022-08-03T14:55:50.801Z,36.40
2022-08-03T14:58:21.473Z,35.90
2022-08-03T15:00:49.507Z,35.40
2022-08-03T15:03:17.356Z,35.10
2022-08-03T15:05:45.011Z,35.30
2022-08-03T15:08:11.923Z,35.30
2022-08-03T15:10:43.902Z,35.60
2022-08-03T15:13:11.222Z,35.60
2022-08-03T15:15:38.559Z,35.30
2022-08-03T15:18:05.658Z,35.40
2022-08-03T15:20:43.721Z,35.80
2022-08-03T15:23:15.316Z,36.30
2022-08-03T15:26:06.549Z,36.70
2022-08-03T15:28:31.394Z,36.90
2022-08-03T15:30:58.732Z,36.30
2022-08-03T15:33:25.833Z,36.50
2022-08-03T15:35:53.450Z,36.70
2022-08-03T15:38:25.899Z,36.70
2022-08-03T15:40:57.101Z,36.60
2022-08-03T15:43:25.245Z,36.50
2022-08-03T15:46:12.775Z,37.10
2022-08-03T15:48:40.305Z,37.00
2022-08-03T15:51:09.462Z,37.10
2022-08-03T15:53:36.934Z,37.10
2022-08-03T15:56:10.018Z,36.70
2022-08-03T15:59:09.483Z,36.60
2022-08-03T16:01:26.814Z,36.60
2022-08-03T16:03:53.958Z,36.30
2022-08-03T16:06:29.573Z,36.10
2022-08-03T16:09:05.767Z,36.00
2022-08-03T16:11:51.534Z,36.10
2022-08-03T16:14:32.590Z,36.60
2022-08-03T16:17:03.089Z,36.30
2022-08-03T16:19:29.944Z,36.00
2022-08-03T16:21:56.839Z,35.80
2022-08-03T16:24:28.131Z,35.70
2022-08-03T16:26:55.985Z,35.50
2022-08-03T16:29:23.813Z,35.40
2022-08-03T16:31:52.300Z,35.60
2022-08-03T16:34:20.099Z,35.90
2022-08-03T16:36:47.177Z,35.60
2022-08-03T16:39:14.245Z,35.60
2022-08-03T16:41:53.731Z,35.60
2022-08-03T16:44:30.168Z,35.70
2022-08-03T16:46:57.775Z,35.70
2022-08-03T16:49:53.171Z,35.50
2022-08-03T16:52:12.970Z,35.60
2022-08-03T16:54:40.709Z,35.40
2022-08-03T16:57:11.082Z,35.10
2022-08-03T16:59:39.009Z,35.30
2022-08-03T17:02:10.615Z,35.00
2022-08-03T17:04:40.375Z,34.80
2022-08-03T17:07:18.679Z,34.80
2022-08-03T17:09:47.740Z,34.70
2022-08-03T17:12:15.380Z,34.70
2022-08-03T17:14:42.986Z,34.50
2022-08-03T17:17:21.136Z,34.50
2022-08-03T17:19:54.162Z,34.50
2022-08-03T17:22:28.065Z,34.50
2022-08-03T17:24:58.400Z,34.40
2022-08-03T17:28:50.947Z,34.40
2022-08-03T17:30:19.018Z,34.30
2022-08-03T17:32:52.602Z,34.20
2022-08-03T17:35:24.598Z,34.30
2022-08-03T17:38:03.688Z,34.20
2022-08-03T17:40:32.949Z,34.20
2022-08-03T17:43:02.487Z,34.20
2022-08-03T17:45:52.888Z,34.30
2022-08-03T17:48:26.253Z,34.30
2022-08-03T17:50:59.599Z,34.30
2022-08-03T17:53:33.685Z,34.40
2022-08-03T17:56:44.634Z,34.50
2022-08-03T17:59:51.947Z,34.50
2022-08-03T18:03:15.531Z,34.50
2022-08-03T18:06:11.635Z,34.40
2022-08-03T18:08:48.388Z,34.20
2022-08-03T18:11:21.946Z,34.10
2022-08-03T18:14:01.564Z,34.00
2022-08-03T18:16:38.671Z,33.90
2022-08-03T18:19:09.239Z,33.80
2022-08-03T18:22:02.227Z,33.80
2022-08-03T18:24:25.452Z,33.70
2022-08-03T18:26:54.796Z,33.40
2022-08-03T18:29:22.827Z,33.30
2022-08-03T18:32:02.517Z,33.10
2022-08-03T18:34:33.076Z,33.00
2022-08-03T18:37:07.317Z,32.90
2022-08-03T18:39:49.388Z,32.70
2022-08-03T18:42:19.059Z,32.80
2022-08-03T18:44:53.926Z,32.70
2022-08-03T18:47:52.651Z,32.50
2022-08-03T18:50:30.589Z,32.50
2022-08-03T18:53:16.305Z,32.40
2022-08-03T18:56:14.310Z,32.20
2022-08-03T18:59:15.824Z,32.00
2022-08-03T19:02:00.793Z,31.80
2022-08-03T19:04:35.301Z,31.70
2022-08-03T19:07:07.917Z,31.60
2022-08-03T19:10:00.217Z,31.60
2022-08-03T19:12:45.735Z,31.50
2022-08-03T19:15:15.542Z,31.40
2022-08-03T19:17:50.306Z,31.30
2022-08-03T19:20:25.312Z,31.20
2022-08-03T19:22:53.609Z,31.10
2022-08-03T19:25:35.240Z,31.00
2022-08-03T19:28:05.915Z,30.80
2022-08-03T19:30:38.766Z,30.70
2022-08-03T19:33:12.349Z,30.60
2022-08-03T19:35:51.561Z,30.50
2022-08-03T19:38:29.069Z,30.40
2022-08-03T19:41:01.053Z,30.30
2022-08-03T19:43:53.857Z,30.10
2022-08-03T19:46:30.357Z,30.10
2022-08-03T19:49:14.688Z,30.10
2022-08-03T19:52:01.713Z,30.00
2022-08-03T19:54:52.851Z,30.00
2022-08-03T20:00:13.990Z,29.80
2022-08-03T20:02:41.620Z,29.80
2022-08-03T20:05:14.880Z,29.70
2022-08-03T20:07:47.436Z,29.50
2022-08-03T20:10:16.116Z,29.50
2022-08-03T20:12:44.588Z,29.40
2022-08-03T20:15:12.122Z,29.30
2022-08-03T20:17:54.435Z,29.20
2022-08-03T20:20:33.427Z,29.20
2022-08-03T20:23:06.899Z,29.10
2022-08-03T20:25:48.726Z,29.10
2022-08-03T20:28:50.241Z,29.00
2022-08-03T20:31:20.839Z,28.90
2022-08-03T20:33:50.861Z,28.80
2022-08-03T20:36:19.081Z,28.70
2022-08-03T20:38:48.187Z,28.70
2022-08-03T20:41:20.066Z,28.80
2022-08-03T20:43:49.284Z,28.70
2022-08-03T20:49:07.142Z,28.50
2022-08-03T20:51:50.051Z,28.50
2022-08-03T20:54:29.018Z,28.50
2022-08-03T20:56:59.244Z,28.40
2022-08-03T20:59:46.814Z,28.20
2022-08-03T21:02:19.967Z,28.20
2022-08-03T21:04:56.414Z,28.20
2022-08-03T21:07:25.216Z,28.20
2022-08-03T21:10:15.374Z,28.10
2022-08-03T21:12:52.061Z,28.20
2022-08-03T21:13:03.269Z,29.90
2022-08-03T21:13:07.421Z,28.70
2022-08-03T21:16:02.436Z,28.20
2022-08-03T21:18:15.342Z,28.30
2022-08-03T21:20:45.523Z,28.10
2022-08-03T21:23:39.934Z,28.10
2022-08-03T21:26:01.936Z,28.10
2022-08-03T21:28:29.774Z,28.00
2022-08-03T21:30:58.736Z,27.90
2022-08-03T21:33:27.917Z,27.90
2022-08-03T21:35:55.176Z,27.80
2022-08-03T21:38:30.205Z,27.80
2022-08-03T21:40:57.492Z,27.80
2022-08-03T21:43:25.416Z,27.60
2022-08-03T21:46:05.040Z,27.60
2022-08-03T21:48:37.685Z,27.60
2022-08-03T21:51:06.519Z,27.70
2022-08-03T21:54:03.702Z,27.60
2022-08-03T21:56:22.448Z,27.60
2022-08-03T21:58:51.276Z,27.50
2022-08-03T22:01:24.913Z,27.50
2022-08-03T22:03:56.854Z,27.50
2022-08-03T22:06:27.727Z,27.40
2022-08-03T22:08:55.298Z,27.20
2022-08-03T22:11:22.421Z,27.20
2022-08-03T22:13:49.398Z,27.30
2022-08-03T22:16:16.624Z,27.10
2022-08-03T22:18:46.063Z,27.10
2022-08-03T22:21:16.705Z,27.00
2022-08-03T22:23:58.361Z,27.10
2022-08-03T22:26:34.816Z,27.10
2022-08-03T22:29:08.055Z,27.10
2022-08-03T22:31:58.856Z,27.00
2022-08-03T22:34:27.355Z,26.90
2022-08-03T22:36:57.871Z,26.80
2022-08-03T22:39:29.397Z,26.60
2022-08-03T22:42:00.335Z,26.60
2022-08-03T22:44:28.374Z,26.60
2022-08-03T22:46:55.939Z,26.50
2022-08-03T22:49:23.022Z,26.60
2022-08-03T22:51:52.797Z,26.60
2022-08-03T22:54:19.856Z,26.60
2022-08-03T22:56:47.210Z,26.60
2022-08-03T22:59:40.082Z,26.50
2022-08-03T23:02:20.264Z,26.40
2022-08-03T23:04:57.499Z,26.40
2022-08-03T23:07:36.446Z,26.30
2022-08-03T23:10:10.326Z,26.30
2022-08-03T23:12:39.536Z,26.20
2022-08-03T23:15:12.020Z,26.20
2022-08-03T23:17:57.939Z,26.20
2022-08-03T23:20:26.671Z,26.10
2022-08-03T23:22:54.693Z,26.00
2022-08-03T23:25:22.150Z,26.00
2022-08-03T23:28:05.038Z,26.00
2022-08-03T23:30:37.235Z,26.00
2022-08-03T23:33:04.505Z,26.00
2022-08-03T23:36:22.619Z,25.90
2022-08-03T23:38:37.055Z,25.80
2022-08-03T23:41:04.884Z,25.80
2022-08-03T23:43:51.397Z,25.80
2022-08-03T23:46:22.392Z,25.60
2022-08-03T23:48:50.838Z,25.70
2022-08-03T23:51:39.208Z,25.70
2022-08-03T23:54:09.203Z,25.70
2022-08-03T23:56:52.238Z,25.60
2022-08-03T23:59:38.328Z,25.60
